Time;durP1;ratioP1;P1;durP2;ratioP2;P2;SDS_P1;SDS_P2;PMS_P1;PMS_P2;Temp;Humidity;BMP_temperature;BMP_pressure;BME280_temperature;BME280_humidity;BME280_pressure;Samples;Min_cycle;Max_cycle;Signal;HPM_P1;HPM_P2
2020/12/22 00:01:50;;;;;;;6.17;5.30;;;;;;;;;;10370536;28;20227;-59
2020/12/22 00:06:56;;;;;;;8.00;4.93;;;;;;;;;;10356373;28;20762;-59
2020/12/22 00:11:58;;;;;;;8.43;6.03;;;;;;;;;;10364545;28;20225;-59
2020/12/22 00:17:00;;;;;;;6.07;4.80;;;;;;;;;;10369281;28;20216;-59
2020/12/22 00:22:03;;;;;;;5.87;4.93;;;;;;;;;;10357315;28;20573;-64
2020/12/22 00:27:05;;;;;;;6.87;4.47;;;;;;;;;;10365291;28;20745;-64
2020/12/22 00:32:07;;;;;;;6.60;4.30;;;;;;;;;;10354185;28;20208;-64
2020/12/22 00:37:11;;;;;;;4.37;3.97;;;;;;;;;;10360838;28;20227;-64
2020/12/22 00:42:12;;;;;;;5.43;4.43;;;;;;;;;;10361051;28;20730;-64
2020/12/22 00:47:14;;;;;;;5.53;3.90;;;;;;;;;;10361359;28;20212;-64
2020/12/22 00:52:18;;;;;;;5.07;3.90;;;;;;;;;;10358914;28;20213;-64
2020/12/22 00:57:20;;;;;;;3.73;3.40;;;;;;;;;;10363740;28;20216;-59
2020/12/22 01:02:22;;;;;;;4.67;3.40;;;;;;;;;;10356673;28;20224;-60
2020/12/22 01:07:25;;;;;;;5.23;3.20;;;;;;;;;;10358420;28;20239;-59
2020/12/22 01:12:26;;;;;;;5.03;3.20;;;;;;;;;;10367440;28;20685;-64
2020/12/22 01:17:28;;;;;;;2.83;2.53;;;;;;;;;;10363933;28;20506;-64
2020/12/22 01:22:31;;;;;;;4.13;2.97;;;;;;;;;;10357023;28;20216;-64
2020/12/22 01:27:33;;;;;;;3.07;2.70;;;;;;;;;;10366029;28;20282;-64
2020/12/22 01:32:35;;;;;;;3.50;2.80;;;;;;;;;;10357136;28;21060;-59
2020/12/22 01:37:37;;;;;;;2.57;2.20;;;;;;;;;;10357615;28;20887;-59
2020/12/22 01:42:42;;;;;;;2.73;2.10;;;;;;;;;;10368100;28;20262;-59
2020/12/22 01:47:44;;;;;;;2.93;2.10;;;;;;;;;;10356671;28;20911;-59
2020/12/22 01:52:47;;;;;;;2.90;2.20;;;;;;;;;;10361575;28;20623;-66
2020/12/22 01:57:49;;;;;;;3.03;2.37;;;;;;;;;;10362403;28;20271;-63
2020/12/22 02:02:52;;;;;;;2.70;2.10;;;;;;;;;;10354559;28;20450;-64
2020/12/22 02:07:55;;;;;;;2.10;1.90;;;;;;;;;;10326851;28;20879;-64
2020/12/22 02:12:56;;;;;;;2.10;1.80;;;;;;;;;;10326205;28;20225;-64
2020/12/22 02:17:59;;;;;;;2.07;1.87;;;;;;;;;;10331280;28;20694;-64
2020/12/22 02:23:02;;;;;;;1.83;1.73;;;;;;;;;;10328529;28;20221;-64
2020/12/22 02:28:04;;;;;;;4.40;2.10;;;;;;;;;;10333367;28;20237;-64
2020/12/22 02:33:06;;;;;;;3.10;1.80;;;;;;;;;;10322974;28;20232;-64
2020/12/22 02:38:09;;;;;;;2.80;2.00;;;;;;;;;;10321055;28;20961;-64
2020/12/22 02:43:12;;;;;;;3.27;2.00;;;;;;;;;;10325117;28;20519;-64
2020/12/22 02:48:14;;;;;;;7.43;2.53;;;;;;;;;;10331919;28;20209;-64
2020/12/22 02:53:18;;;;;;;3.67;1.97;;;;;;;;;;10329279;28;21210;-64
2020/12/22 02:58:20;;;;;;;4.00;1.77;;;;;;;;;;10326612;28;20213;-64
2020/12/22 03:03:22;;;;;;;2.33;1.43;;;;;;;;;;10332063;28;20236;-64
2020/12/22 03:08:25;;;;;;;2.63;1.50;;;;;;;;;;10359060;28;20216;-64
2020/12/22 03:13:27;;;;;;;2.40;1.37;;;;;;;;;;10362627;28;20251;-64
2020/12/22 03:18:28;;;;;;;6.23;1.63;;;;;;;;;;10365350;28;20216;-65
2020/12/22 03:23:31;;;;;;;6.30;1.80;;;;;;;;;;10363513;28;20231;-60
2020/12/22 03:28:33;;;;;;;10.20;2.10;;;;;;;;;;10357771;28;20665;-59
2020/12/22 03:33:35;;;;;;;10.57;2.00;;;;;;;;;;10362700;28;20235;-59
2020/12/22 03:38:38;;;;;;;7.63;2.37;;;;;;;;;;10356135;28;20217;-59
2020/12/22 03:43:40;;;;;;;10.57;2.37;;;;;;;;;;10364869;28;20219;-64
2020/12/22 03:48:42;;;;;;;12.37;2.27;;;;;;;;;;10367599;28;20247;-64
2020/12/22 03:53:45;;;;;;;6.73;1.77;;;;;;;;;;10364984;28;20240;-64
2020/12/22 03:58:46;;;;;;;8.67;1.60;;;;;;;;;;10364484;28;20707;-64
2020/12/22 04:03:49;;;;;;;5.20;1.60;;;;;;;;;;10367196;28;20247;-64
2020/12/22 04:08:53;;;;;;;8.57;1.83;;;;;;;;;;10363414;28;20227;-64
2020/12/22 04:13:54;;;;;;;5.23;1.70;;;;;;;;;;10375144;28;20244;-64
2020/12/22 04:18:56;;;;;;;6.53;1.60;;;;;;;;;;10358550;28;20363;-64
2020/12/22 04:23:59;;;;;;;11.40;2.00;;;;;;;;;;10362549;28;25590;-64
2020/12/22 04:29:01;;;;;;;9.90;2.00;;;;;;;;;;10364851;28;20680;-65
2020/12/22 04:34:03;;;;;;;9.67;2.20;;;;;;;;;;10369737;28;20746;-64
2020/12/22 04:39:06;;;;;;;8.67;1.80;;;;;;;;;;10365252;28;20217;-64
2020/12/22 04:44:08;;;;;;;6.70;1.90;;;;;;;;;;10366298;28;20224;-64
2020/12/22 04:49:10;;;;;;;6.50;1.70;;;;;;;;;;10359273;28;20224;-64
2020/12/22 04:54:13;;;;;;;10.67;1.83;;;;;;;;;;10353743;28;20925;-65
2020/12/22 04:59:15;;;;;;;12.90;2.13;;;;;;;;;;10359968;28;20324;-64
2020/12/22 05:04:18;;;;;;;9.70;2.10;;;;;;;;;;10365626;28;20232;-64
2020/12/22 05:09:20;;;;;;;11.23;2.23;;;;;;;;;;10363109;28;20219;-65
2020/12/22 05:14:24;;;;;;;8.27;1.60;;;;;;;;;;10372820;28;20244;-64
2020/12/22 05:19:33;;;;;;;14.30;2.30;;;;;;;;;;10359114;28;20306;-65
2020/12/22 05:24:36;;;;;;;15.10;2.00;;;;;;;;;;10358081;28;20212;-65
2020/12/22 05:29:38;;;;;;;12.77;1.83;;;;;;;;;;10359338;28;20208;-65
2020/12/22 05:34:40;;;;;;;11.20;2.00;;;;;;;;;;10365356;28;20236;-59
2020/12/22 05:39:44;;;;;;;11.23;2.43;;;;;;;;;;10364786;28;20587;-59
2020/12/22 05:44:50;;;;;;;10.53;2.20;;;;;;;;;;10368382;28;20262;-59
2020/12/22 05:49:53;;;;;;;12.47;2.00;;;;;;;;;;10368042;28;20787;-65
2020/12/22 05:54:56;;;;;;;11.97;2.37;;;;;;;;;;10367474;28;20241;-65
2020/12/22 06:00:12;;;;;;;8.97;2.03;;;;;;;;;;10368636;28;20212;-64
2020/12/22 06:05:14;;;;;;;10.63;1.70;;;;;;;;;;10374132;28;20227;-65
2020/12/22 06:10:20;;;;;;;12.87;2.37;;;;;;;;;;10367126;28;20217;-59
2020/12/22 06:15:23;;;;;;;16.40;2.57;;;;;;;;;;10373034;28;20236;-60
2020/12/22 06:20:27;;;;;;;11.87;1.97;;;;;;;;;;10361387;28;20217;-60
2020/12/22 06:25:30;;;;;;;13.43;2.03;;;;;;;;;;10370827;28;21017;-59
2020/12/22 06:30:33;;;;;;;13.03;2.60;;;;;;;;;;10369970;28;20322;-59
2020/12/22 06:35:58;;;;;;;10.77;2.10;;;;;;;;;;10362868;28;20232;-60
2020/12/22 06:41:01;;;;;;;21.87;3.07;;;;;;;;;;10370107;28;20301;-59
2020/12/22 06:46:03;;;;;;;16.93;3.00;;;;;;;;;;10371248;28;20232;-60
2020/12/22 06:51:20;;;;;;;13.27;2.47;;;;;;;;;;10360641;28;20223;-59
2020/12/22 06:56:40;;;;;;;15.90;2.20;;;;;;;;;;10369941;28;20236;-59
2020/12/22 07:01:46;;;;;;;11.50;2.40;;;;;;;;;;10365526;28;20213;-59
2020/12/22 07:06:57;;;;;;;16.60;2.87;;;;;;;;;;10369218;28;20244;-58
2020/12/22 07:12:10;;;;;;;18.77;3.23;;;;;;;;;;10368981;28;20217;-59
2020/12/22 07:17:14;;;;;;;48.13;12.77;;;;;;;;;;10371967;28;20232;-59
2020/12/22 07:22:17;;;;;;;23.13;5.87;;;;;;;;;;10369055;28;20231;-65
2020/12/22 07:27:19;;;;;;;18.03;3.90;;;;;;;;;;10371831;28;20227;-66
2020/12/22 07:32:23;;;;;;;18.87;2.80;;;;;;;;;;10362384;28;20204;-66
2020/12/22 07:37:24;;;;;;;14.80;2.27;;;;;;;;;;10365641;28;20243;-66
2020/12/22 07:42:26;;;;;;;16.30;2.60;;;;;;;;;;10363971;28;20208;-66
2020/12/22 07:47:29;;;;;;;10.33;1.87;;;;;;;;;;10366721;28;20208;-66
2020/12/22 07:52:31;;;;;;;15.60;2.23;;;;;;;;;;10363549;28;20700;-65
2020/12/22 07:57:33;;;;;;;10.80;2.37;;;;;;;;;;10361357;28;20260;-65
2020/12/22 08:02:35;;;;;;;14.50;2.43;;;;;;;;;;10364820;28;20237;-65
2020/12/22 08:07:39;;;;;;;18.50;2.63;;;;;;;;;;10376572;28;20244;-66
2020/12/22 08:12:41;;;;;;;11.93;2.40;;;;;;;;;;10374662;28;20218;-67
2020/12/22 08:17:49;;;;;;;18.50;3.30;;;;;;;;;;10372746;28;20330;-59
2020/12/22 08:22:51;;;;;;;21.93;2.87;;;;;;;;;;10375755;28;20212;-60
2020/12/22 08:27:53;;;;;;;22.43;3.03;;;;;;;;;;10363051;28;20221;-60
2020/12/22 08:32:58;;;;;;;19.50;3.13;;;;;;;;;;10365371;28;20234;-58
2020/12/22 08:38:00;;;;;;;32.83;4.13;;;;;;;;;;10360379;28;20240;-60
2020/12/22 08:43:02;;;;;;;25.10;3.70;;;;;;;;;;10367744;28;20216;-60
2020/12/22 08:48:06;;;;;;;25.63;4.10;;;;;;;;;;10366951;28;20625;-58
2020/12/22 08:53:13;;;;;;;25.77;3.97;;;;;;;;;;10358700;28;20212;-65
2020/12/22 08:58:14;;;;;;;31.73;3.93;;;;;;;;;;10362340;28;20212;-66
2020/12/22 09:03:17;;;;;;;30.30;4.23;;;;;;;;;;10351697;28;20251;-66
2020/12/22 09:08:19;;;;;;;30.93;4.23;;;;;;;;;;10350237;28;20216;-65
2020/12/22 09:13:21;;;;;;;35.23;4.83;;;;;;;;;;10343942;28;20242;-59
2020/12/22 09:18:24;;;;;;;32.77;4.27;;;;;;;;;;10369967;28;20216;-59
2020/12/22 09:23:26;;;;;;;22.17;4.20;;;;;;;;;;10350838;28;20216;-59
2020/12/22 09:28:27;;;;;;;28.77;4.90;;;;;;;;;;10362617;28;20216;-59
2020/12/22 09:33:30;;;;;;;25.93;4.03;;;;;;;;;;10358086;28;20236;-59
2020/12/22 09:38:32;;;;;;;20.83;3.10;;;;;;;;;;10357307;28;20216;-58
2020/12/22 09:43:34;;;;;;;21.47;3.20;;;;;;;;;;10355207;28;20220;-81
2020/12/22 09:48:55;;;;;;;25.93;4.20;;;;;;;;;;10366947;28;20215;-63
2020/12/22 09:53:57;;;;;;;17.57;2.83;;;;;;;;;;10357437;28;20614;-64
2020/12/22 09:58:58;;;;;;;17.53;2.63;;;;;;;;;;10341492;28;20725;-64
2020/12/22 10:04:01;;;;;;;24.80;3.20;;;;;;;;;;10340677;28;20236;-64
2020/12/22 10:09:03;;;;;;;11.63;2.53;;;;;;;;;;10349184;28;20213;-65
2020/12/22 10:14:05;;;;;;;15.43;2.57;;;;;;;;;;10353931;28;20229;-64
2020/12/22 10:19:10;;;;;;;16.50;2.70;;;;;;;;;;10352831;28;20216;-64
2020/12/22 10:24:12;;;;;;;11.07;2.40;;;;;;;;;;10347845;28;20617;-63
2020/12/22 10:29:13;;;;;;;12.50;2.60;;;;;;;;;;10357544;28;20212;-59
2020/12/22 10:34:16;;;;;;;14.03;2.90;;;;;;;;;;10356612;28;20236;-59
2020/12/22 10:39:18;;;;;;;11.83;3.90;;;;;;;;;;10354102;28;20213;-59
2020/12/22 10:44:20;;;;;;;25.70;5.07;;;;;;;;;;10365771;28;20228;-63
2020/12/22 10:49:23;;;;;;;9.50;3.70;;;;;;;;;;10357450;28;20598;-63
2020/12/22 10:54:25;;;;;;;17.53;4.40;;;;;;;;;;10361766;28;20236;-64
2020/12/22 10:59:28;;;;;;;24.43;5.23;;;;;;;;;;10361203;28;20334;-63
2020/12/22 11:04:31;;;;;;;17.73;4.47;;;;;;;;;;10358081;28;20243;-60
2020/12/22 11:09:33;;;;;;;19.57;4.60;;;;;;;;;;10365609;28;20572;-59
2020/12/22 11:14:35;;;;;;;16.93;4.97;;;;;;;;;;10364338;28;20239;-59
2020/12/22 11:19:38;;;;;;;18.23;5.57;;;;;;;;;;10355316;28;20216;-59
2020/12/22 11:24:40;;;;;;;25.27;6.20;;;;;;;;;;10363145;28;20217;-60
2020/12/22 11:29:42;;;;;;;21.93;5.87;;;;;;;;;;10363824;28;20212;-59
2020/12/22 11:34:46;;;;;;;17.97;5.50;;;;;;;;;;10363917;28;20243;-59
2020/12/22 11:39:47;;;;;;;14.10;4.53;;;;;;;;;;10356385;28;20221;-63
2020/12/22 11:44:49;;;;;;;15.27;3.93;;;;;;;;;;10358108;28;20225;-63
2020/12/22 11:49:52;;;;;;;16.03;4.50;;;;;;;;;;10357835;28;20722;-62
2020/12/22 11:54:54;;;;;;;26.00;4.77;;;;;;;;;;10353424;28;20243;-63
2020/12/22 11:59:56;;;;;;;15.50;4.70;;;;;;;;;;10360226;28;20235;-59
2020/12/22 12:04:58;;;;;;;17.20;4.47;;;;;;;;;;10353813;28;20254;-59
2020/12/22 12:10:01;;;;;;;14.27;4.90;;;;;;;;;;10355563;28;20220;-59
2020/12/22 12:15:03;;;;;;;13.93;5.07;;;;;;;;;;10355784;28;20236;-58
2020/12/22 12:20:06;;;;;;;23.10;5.10;;;;;;;;;;10358295;28;20212;-59
2020/12/22 12:25:08;;;;;;;20.30;4.67;;;;;;;;;;10351847;28;20287;-58
2020/12/22 12:30:09;;;;;;;16.00;4.50;;;;;;;;;;10358544;28;20300;-59
2020/12/22 12:35:12;;;;;;;18.70;4.97;;;;;;;;;;10353028;28;20252;-64
2020/12/22 12:40:14;;;;;;;13.87;4.70;;;;;;;;;;10356159;28;20204;-64
2020/12/22 12:45:15;;;;;;;13.23;4.33;;;;;;;;;;10359190;28;20660;-64
2020/12/22 12:50:19;;;;;;;10.40;4.40;;;;;;;;;;10356468;28;20227;-64
2020/12/22 12:55:21;;;;;;;16.47;4.73;;;;;;;;;;10358440;28;20244;-59
2020/12/22 13:00:22;;;;;;;13.07;5.10;;;;;;;;;;10364042;28;20220;-60
2020/12/22 13:05:26;;;;;;;17.57;4.30;;;;;;;;;;10355579;28;20244;-59
2020/12/22 13:10:27;;;;;;;8.87;3.50;;;;;;;;;;10354906;28;20260;-60
2020/12/22 13:15:29;;;;;;;15.33;3.90;;;;;;;;;;10352771;28;20246;-61
2020/12/22 13:20:32;;;;;;;11.50;3.97;;;;;;;;;;10347811;28;20678;-60
2020/12/22 13:25:34;;;;;;;15.87;3.30;;;;;;;;;;10350195;28;20621;-59
2020/12/22 13:30:36;;;;;;;22.67;5.90;;;;;;;;;;10350151;28;20220;-59
2020/12/22 13:35:38;;;;;;;20.40;4.43;;;;;;;;;;10351458;28;20925;-59
2020/12/22 13:41:00;;;;;;;19.43;6.00;;;;;;;;;;10355291;28;20329;-59
2020/12/22 13:46:02;;;;;;;17.80;5.93;;;;;;;;;;10366659;28;22965;-58
2020/12/22 13:51:05;;;;;;;20.13;6.20;;;;;;;;;;10359401;28;20266;-64
2020/12/22 13:56:06;;;;;;;16.43;4.40;;;;;;;;;;10363074;28;20232;-64
2020/12/22 14:01:08;;;;;;;17.37;4.77;;;;;;;;;;10358196;28;20212;-64
2020/12/22 14:06:11;;;;;;;19.10;4.40;;;;;;;;;;10357232;28;20232;-64
2020/12/22 14:11:13;;;;;;;13.23;3.97;;;;;;;;;;10370084;28;20983;-64
2020/12/22 14:16:15;;;;;;;13.83;3.10;;;;;;;;;;10361964;28;20251;-64
2020/12/22 14:21:20;;;;;;;21.23;3.77;;;;;;;;;;10360792;28;20806;-64
2020/12/22 14:26:25;;;;;;;11.83;3.30;;;;;;;;;;10363145;28;20228;-64
2020/12/22 14:31:32;;;;;;;16.60;3.50;;;;;;;;;;10361319;28;20236;-65
2020/12/22 14:36:35;;;;;;;14.87;3.03;;;;;;;;;;10365488;28;20240;-64
2020/12/22 14:41:37;;;;;;;15.37;3.33;;;;;;;;;;10357815;28;20215;-63
2020/12/22 14:46:39;;;;;;;13.13;3.10;;;;;;;;;;10355145;28;20215;-59
2020/12/22 14:51:41;;;;;;;10.77;2.90;;;;;;;;;;10366225;28;20259;-59
2020/12/22 14:56:44;;;;;;;14.93;3.73;;;;;;;;;;10368645;28;20247;-59
2020/12/22 15:01:46;;;;;;;11.90;2.90;;;;;;;;;;10365011;28;21048;-59
2020/12/22 15:06:49;;;;;;;14.93;2.80;;;;;;;;;;10351590;28;20731;-60
2020/12/22 15:11:51;;;;;;;15.20;3.13;;;;;;;;;;10352064;28;20691;-59
2020/12/22 15:16:52;;;;;;;13.63;2.77;;;;;;;;;;10363478;28;20244;-59
2020/12/22 15:21:55;;;;;;;13.00;2.93;;;;;;;;;;10366995;28;20219;-59
2020/12/22 15:26:57;;;;;;;9.43;3.20;;;;;;;;;;10370528;28;20216;-59
2020/12/22 15:31:59;;;;;;;13.50;3.60;;;;;;;;;;10375399;28;20222;-59
2020/12/22 15:37:02;;;;;;;19.33;3.40;;;;;;;;;;10361234;28;20228;-59
2020/12/22 15:42:05;;;;;;;16.93;3.50;;;;;;;;;;10370882;28;20609;-59
2020/12/22 15:47:07;;;;;;;12.87;3.27;;;;;;;;;;10363717;28;20212;-59
2020/12/22 15:52:09;;;;;;;15.37;3.30;;;;;;;;;;10364133;28;20209;-59
2020/12/22 15:57:11;;;;;;;15.83;3.27;;;;;;;;;;10363977;28;20881;-58
2020/12/22 16:02:13;;;;;;;18.03;3.20;;;;;;;;;;10363478;28;20336;-59
2020/12/22 16:07:17;;;;;;;13.20;2.90;;;;;;;;;;10358801;28;20532;-59
2020/12/22 16:12:20;;;;;;;13.13;2.93;;;;;;;;;;10361543;28;20295;-59
2020/12/22 16:17:21;;;;;;;15.57;3.70;;;;;;;;;;10350616;28;20251;-58
2020/12/22 16:22:24;;;;;;;18.87;3.70;;;;;;;;;;10337164;28;20217;-60
2020/12/22 16:27:26;;;;;;;15.17;3.57;;;;;;;;;;10351555;28;20223;-58
2020/12/22 16:32:28;;;;;;;13.67;3.60;;;;;;;;;;10354283;28;20252;-57
2020/12/22 16:37:30;;;;;;;15.27;3.90;;;;;;;;;;10353952;28;20967;-59
2020/12/22 21:06:27;;;;;;;41.87;18.03;;;;;;;;;;13092508;22;823419;-60
2020/12/22 21:11:30;;;;;;;39.67;16.10;;;;;;;;;;13087073;22;20196;-59
2020/12/22 21:16:32;;;;;;;30.97;15.47;;;;;;;;;;13064563;22;20169;-60
2020/12/22 21:21:36;;;;;;;33.63;16.70;;;;;;;;;;13066302;22;20711;-60
2020/12/22 21:26:39;;;;;;;38.17;17.07;;;;;;;;;;13071829;22;20196;-60
2020/12/22 21:31:41;;;;;;;44.87;18.00;;;;;;;;;;13071002;22;20204;-60
2020/12/22 21:36:45;;;;;;;40.83;18.37;;;;;;;;;;13073906;22;20595;-60
2020/12/22 21:41:47;;;;;;;46.20;19.97;;;;;;;;;;13071760;22;20499;-59
2020/12/22 21:46:49;;;;;;;57.87;30.07;;;;;;;;;;13074666;22;20181;-60
2020/12/22 21:51:52;;;;;;;38.73;19.77;;;;;;;;;;13073431;22;20204;-60
2020/12/22 21:56:56;;;;;;;37.53;20.43;;;;;;;;;;13076769;22;20181;-60
2020/12/22 22:01:58;;;;;;;37.87;21.50;;;;;;;;;;13074194;22;20702;-60
2020/12/22 22:07:00;;;;;;;52.87;23.40;;;;;;;;;;13073787;22;20216;-60
2020/12/22 22:12:02;;;;;;;49.07;23.40;;;;;;;;;;13072618;22;20208;-59
2020/12/22 22:17:05;;;;;;;44.53;22.40;;;;;;;;;;13076768;22;20239;-58
2020/12/22 22:22:07;;;;;;;50.20;23.30;;;;;;;;;;13071528;22;20288;-60
2020/12/22 22:27:09;;;;;;;43.30;21.67;;;;;;;;;;13075829;22;20192;-60
2020/12/22 22:32:11;;;;;;;44.97;22.37;;;;;;;;;;13075071;22;20211;-60
2020/12/22 22:37:15;;;;;;;46.00;23.60;;;;;;;;;;13073465;22;20260;-59
2020/12/22 22:42:17;;;;;;;44.13;21.27;;;;;;;;;;13073078;22;20188;-60
2020/12/22 22:47:19;;;;;;;42.80;20.60;;;;;;;;;;13074679;22;20184;-60
2020/12/22 22:52:21;;;;;;;42.73;21.00;;;;;;;;;;13075518;22;20205;-60
2020/12/22 22:57:23;;;;;;;41.30;20.80;;;;;;;;;;13071998;22;20173;-59
2020/12/22 23:02:25;;;;;;;42.43;19.47;;;;;;;;;;13075375;22;20193;-60
2020/12/22 23:07:28;;;;;;;38.40;20.00;;;;;;;;;;13070827;22;20215;-60
2020/12/22 23:12:31;;;;;;;42.97;20.60;;;;;;;;;;13074963;22;20262;-60
2020/12/22 23:17:33;;;;;;;47.73;21.07;;;;;;;;;;13072590;22;20185;-60
2020/12/22 23:22:36;;;;;;;51.00;21.07;;;;;;;;;;13072459;22;20204;-59
2020/12/22 23:27:50;;;;;;;45.00;22.23;;;;;;;;;;13097450;22;20239;-59
2020/12/22 23:32:51;;;;;;;51.77;21.67;;;;;;;;;;13073140;22;20686;-60
2020/12/22 23:37:54;;;;;;;43.13;21.53;;;;;;;;;;13070698;22;20173;-60
2020/12/22 23:42:56;;;;;;;48.37;22.70;;;;;;;;;;13072673;22;20173;-60
2020/12/22 23:47:58;;;;;;;52.60;23.30;;;;;;;;;;13073777;22;20177;-60
2020/12/22 23:53:01;;;;;;;64.80;25.00;;;;;;;;;;13070936;22;20216;-60
2020/12/22 23:58:03;;;;;;;55.80;25.70;;;;;;;;;;13069049;22;20180;-59
